createdAt,value
2022-12-23T00:00:40.286Z,6.68
2022-12-23T00:05:41.931Z,6.54
2022-12-23T00:10:43.926Z,6.70
2022-12-23T00:15:45.528Z,7.25
2022-12-23T00:20:47.140Z,7.52
2022-12-23T00:25:48.767Z,8.18
2022-12-23T00:30:55.374Z,8.55
2022-12-23T00:35:57.261Z,8.48
2022-12-23T00:41:17.396Z,8.39
2022-12-23T00:46:19.147Z,8.03
2022-12-23T00:51:20.786Z,7.81
2022-12-23T00:56:22.410Z,7.80
2022-12-23T01:01:42.596Z,7.61
2022-12-23T01:06:44.287Z,8.18
2022-12-23T01:11:45.890Z,8.43
2022-12-23T01:16:47.920Z,8.76
2022-12-23T01:21:49.583Z,8.69
2022-12-23T01:26:51.184Z,8.89
2022-12-23T01:31:52.950Z,9.11
2022-12-23T01:36:54.625Z,9.14
2022-12-23T01:42:14.761Z,9.33
2022-12-23T01:47:31.881Z,9.38
2022-12-23T01:52:40.420Z,9.38
2022-12-23T01:57:43.746Z,9.43
2022-12-23T02:03:08.416Z,9.51
2022-12-23T02:08:28.819Z,9.49
2022-12-23T02:14:23.340Z,9.43
2022-12-23T02:19:39.943Z,9.47
2022-12-23T02:25:04.905Z,9.38
2022-12-23T02:30:40.090Z,9.49
2022-12-23T02:36:17.604Z,9.54
2022-12-23T02:41:35.328Z,9.54
2022-12-23T02:46:46.264Z,9.59
2022-12-23T02:51:53.695Z,9.58
2022-12-23T02:56:57.808Z,9.60
2022-12-23T03:02:01.018Z,9.48
2022-12-23T03:07:07.482Z,9.50
2022-12-23T03:12:28.618Z,9.57
2022-12-23T03:17:42.361Z,9.53
2022-12-23T03:22:57.125Z,9.47
2022-12-23T03:28:19.385Z,9.52
2022-12-23T03:33:31.791Z,9.50
2022-12-23T03:38:37.869Z,9.61
2022-12-23T03:43:50.954Z,9.61
2022-12-23T03:48:58.189Z,9.54
2022-12-23T03:54:03.448Z,9.53
2022-12-23T03:59:28.316Z,9.43
2022-12-23T04:05:03.310Z,9.32
2022-12-23T04:10:05.832Z,9.44
2022-12-23T04:15:12.861Z,9.38
2022-12-23T04:20:15.387Z,9.51
2022-12-23T04:25:17.545Z,9.35
2022-12-23T04:30:19.279Z,9.46
2022-12-23T04:35:21.312Z,9.49
2022-12-23T04:40:23.004Z,9.54
2022-12-23T04:45:24.616Z,9.44
2022-12-23T04:50:26.262Z,9.37
2022-12-23T04:55:27.862Z,9.45
2022-12-23T05:00:34.007Z,9.43
2022-12-23T05:05:43.988Z,9.48
2022-12-23T05:10:45.697Z,9.44
2022-12-23T05:15:51.349Z,9.51
2022-12-23T05:20:53.062Z,9.51
2022-12-23T05:25:54.928Z,9.51
2022-12-23T05:31:06.910Z,9.64
2022-12-23T05:36:09.733Z,9.58
2022-12-23T05:41:11.483Z,9.59
2022-12-23T05:46:13.113Z,9.61
2022-12-23T05:51:14.757Z,9.65
2022-12-23T05:56:16.374Z,9.60
2022-12-23T06:01:17.972Z,9.67
2022-12-23T06:06:19.590Z,9.67
2022-12-23T06:11:21.391Z,9.70
2022-12-23T06:16:23.217Z,9.72
2022-12-23T06:21:27.677Z,9.68
2022-12-23T06:26:29.344Z,9.70
2022-12-23T06:31:30.948Z,9.67
2022-12-23T06:36:32.596Z,9.63
2022-12-23T06:41:34.214Z,9.67
2022-12-23T06:46:35.893Z,9.70
2022-12-23T06:51:37.504Z,9.59
2022-12-23T06:56:39.387Z,9.39
2022-12-23T07:01:41.168Z,9.36
2022-12-23T07:06:42.827Z,9.33
2022-12-23T07:11:44.448Z,9.15
2022-12-23T07:16:46.409Z,9.14
2022-12-23T07:21:48.092Z,9.12
2022-12-23T07:26:50.672Z,9.10
2022-12-23T07:31:53.225Z,9.21
2022-12-23T07:36:55.949Z,9.13
2022-12-23T07:42:24.915Z,9.14
2022-12-23T07:47:19.169Z,9.16
2022-12-23T07:52:20.797Z,9.27
2022-12-23T07:57:22.547Z,9.41
2022-12-23T08:02:25.427Z,9.43
2022-12-23T08:07:27.457Z,9.45
2022-12-23T08:12:29.073Z,9.58
2022-12-23T08:17:30.884Z,9.67
2022-12-23T08:22:32.678Z,9.68
2022-12-23T08:27:35.797Z,9.81
2022-12-23T08:32:37.412Z,9.96
2022-12-23T08:37:39.041Z,9.89
2022-12-23T08:42:40.700Z,9.91
2022-12-23T08:47:42.348Z,9.99
2022-12-23T08:52:44.020Z,9.96
2022-12-23T08:57:45.628Z,10.07
2022-12-23T09:02:47.574Z,10.16
2022-12-23T09:07:49.441Z,10.23
2022-12-23T09:12:51.266Z,10.26
2022-12-23T09:17:52.894Z,10.15
2022-12-23T09:22:54.507Z,10.37
2022-12-23T09:27:56.251Z,10.41
2022-12-23T09:32:57.863Z,10.47
2022-12-23T09:37:59.447Z,10.57
2022-12-23T09:43:28.309Z,10.70
2022-12-23T09:48:35.381Z,10.71
2022-12-23T09:54:01.738Z,10.92
2022-12-23T09:59:14.607Z,11.03
2022-12-23T10:04:28.718Z,11.08
2022-12-23T10:09:38.863Z,11.09
2022-12-23T10:14:41.379Z,11.14
2022-12-23T10:19:48.386Z,11.08
2022-12-23T10:24:50.640Z,11.12
2022-12-23T10:29:52.381Z,11.08
2022-12-23T10:35:15.643Z,11.01
2022-12-23T10:40:45.454Z,11.13
2022-12-23T10:45:56.197Z,11.20
2022-12-23T10:51:03.923Z,11.05
2022-12-23T10:56:07.468Z,11.15
2022-12-23T11:01:18.622Z,11.21
2022-12-23T11:06:30.236Z,11.15
2022-12-23T11:12:00.523Z,11.11
2022-12-23T11:17:03.207Z,11.07
2022-12-23T11:22:04.832Z,11.15
2022-12-23T11:27:11.746Z,11.13
2022-12-23T11:32:26.407Z,11.41
2022-12-23T11:37:36.725Z,11.69
2022-12-23T11:42:41.547Z,11.89
2022-12-23T11:47:43.796Z,11.78
2022-12-23T11:52:51.885Z,11.74
2022-12-23T11:57:54.157Z,11.86
2022-12-23T12:03:00.181Z,11.81
2022-12-23T12:08:07.120Z,11.69
2022-12-23T12:13:26.025Z,11.78
2022-12-23T12:18:28.389Z,11.74
2022-12-23T12:23:45.325Z,12.04
2022-12-23T12:28:53.482Z,11.82
2022-12-23T12:34:12.977Z,11.56
2022-12-23T12:39:31.046Z,11.48
2022-12-23T12:45:12.323Z,11.39
2022-12-23T12:50:18.323Z,11.33
2022-12-23T12:55:26.165Z,11.25
2022-12-23T13:00:28.601Z,11.32
2022-12-23T13:05:36.255Z,11.28
2022-12-23T13:10:50.110Z,11.34
2022-12-23T13:16:26.322Z,11.20
2022-12-23T13:21:48.429Z,11.11
2022-12-23T13:26:57.034Z,11.06
2022-12-23T13:32:15.117Z,11.11
2022-12-23T13:37:17.089Z,11.08
2022-12-23T13:42:34.368Z,11.11
2022-12-23T13:48:11.840Z,11.05
2022-12-23T13:53:26.805Z,11.08
2022-12-23T13:58:31.342Z,11.11
2022-12-23T14:03:35.725Z,11.16
2022-12-23T14:08:42.848Z,11.05
2022-12-23T14:13:58.349Z,10.98
2022-12-23T14:19:36.019Z,10.90
2022-12-23T14:25:02.244Z,10.90
2022-12-23T14:30:16.543Z,10.94
2022-12-23T14:35:26.763Z,10.92
2022-12-23T14:40:37.365Z,10.86
2022-12-23T14:45:43.387Z,10.79
2022-12-23T14:50:57.688Z,10.67
2022-12-23T14:56:11.564Z,10.67
2022-12-23T15:01:42.747Z,10.77
2022-12-23T15:06:47.909Z,10.62
2022-12-23T15:11:50.245Z,10.61
2022-12-23T15:16:51.924Z,10.60
2022-12-23T15:22:19.863Z,10.57
2022-12-23T15:27:28.699Z,10.53
2022-12-23T15:32:31.618Z,10.59
2022-12-23T15:37:33.907Z,10.48
2022-12-23T15:42:37.056Z,10.48
2022-12-23T15:47:39.473Z,10.42
2022-12-23T15:52:43.094Z,10.38
2022-12-23T15:57:50.423Z,10.38
2022-12-23T16:03:03.371Z,10.31
2022-12-23T16:08:16.399Z,10.24
2022-12-23T16:13:20.163Z,10.30
2022-12-23T16:18:28.562Z,10.32
2022-12-23T16:23:35.117Z,10.06
2022-12-23T16:28:43.120Z,10.04
2022-12-23T16:33:47.513Z,9.99
2022-12-23T16:38:51.416Z,9.78
2022-12-23T16:43:53.332Z,9.80
2022-12-23T16:49:00.872Z,9.64
2022-12-23T16:54:02.537Z,9.65
2022-12-23T16:59:04.867Z,9.43
2022-12-23T17:04:07.223Z,9.23
2022-12-23T17:09:10.463Z,9.25
2022-12-23T17:14:24.295Z,9.25
2022-12-23T17:19:29.055Z,9.25
2022-12-23T17:24:31.514Z,9.05
2022-12-23T17:29:33.352Z,8.92
2022-12-23T17:34:35.021Z,8.90
2022-12-23T17:39:36.661Z,8.51
2022-12-23T17:44:38.263Z,8.59
2022-12-23T17:49:40.141Z,8.56
2022-12-23T17:54:42.094Z,8.60
2022-12-23T17:59:47.726Z,8.49
2022-12-23T18:04:50.171Z,8.37
2022-12-23T18:09:52.872Z,8.32
2022-12-23T18:14:55.549Z,8.32
2022-12-23T18:19:57.254Z,8.36
2022-12-23T18:24:59.652Z,8.37
2022-12-23T18:30:01.364Z,8.45
2022-12-23T18:35:03.143Z,8.47
2022-12-23T18:40:06.936Z,8.51
2022-12-23T18:45:23.532Z,8.41
2022-12-23T18:50:26.439Z,8.33
2022-12-23T18:55:30.394Z,8.25
2022-12-23T19:00:33.636Z,8.26
2022-12-23T19:05:35.234Z,8.33
2022-12-23T19:10:36.835Z,8.52
2022-12-23T19:15:40.525Z,8.61
2022-12-23T19:20:43.670Z,8.38
2022-12-23T19:25:52.449Z,8.30
2022-12-23T19:30:56.401Z,8.05
2022-12-23T19:35:58.116Z,8.14
2022-12-23T19:40:59.759Z,8.09
2022-12-23T19:46:04.035Z,7.97
2022-12-23T19:51:08.997Z,8.04
2022-12-23T19:56:15.804Z,8.02
2022-12-23T20:01:20.082Z,7.98
2022-12-23T20:06:27.618Z,7.91
2022-12-23T20:11:32.631Z,7.74
2022-12-23T20:16:35.778Z,7.83
2022-12-23T20:21:37.815Z,7.96
2022-12-23T20:26:39.544Z,8.01
2022-12-23T20:31:41.789Z,7.98
2022-12-23T20:36:43.712Z,8.05
2022-12-23T20:41:45.477Z,7.94
2022-12-23T20:46:47.184Z,7.97
2022-12-23T20:51:48.879Z,7.82
2022-12-23T20:56:50.489Z,8.06
2022-12-23T21:01:52.269Z,8.26
2022-12-23T21:06:54.005Z,8.43
2022-12-23T21:11:55.727Z,8.37
2022-12-23T21:16:57.403Z,8.34
2022-12-23T21:21:59.036Z,8.13
2022-12-23T21:27:00.665Z,8.18
2022-12-23T21:32:02.312Z,8.07
2022-12-23T21:37:04.090Z,8.05
2022-12-23T21:42:06.503Z,8.13
2022-12-23T21:47:08.180Z,8.37
2022-12-23T21:52:10.221Z,8.60
2022-12-23T21:57:11.864Z,8.93
2022-12-23T22:02:16.733Z,9.29
2022-12-23T22:07:18.431Z,9.93
2022-12-23T22:12:20.053Z,9.96
2022-12-23T22:17:21.702Z,9.97
2022-12-23T22:22:23.337Z,10.39
2022-12-23T22:27:24.941Z,10.56
2022-12-23T22:32:26.563Z,10.47
2022-12-23T22:37:28.166Z,10.96
2022-12-23T22:42:29.842Z,11.01
2022-12-23T22:47:32.041Z,10.88
2022-12-23T22:52:33.660Z,10.74
2022-12-23T22:57:35.350Z,10.63
2022-12-23T23:02:36.973Z,10.72
2022-12-23T23:07:38.876Z,10.48
2022-12-23T23:12:41.129Z,10.49
2022-12-23T23:17:42.757Z,10.56
2022-12-23T23:22:44.661Z,10.73
2022-12-23T23:27:46.327Z,11.01
2022-12-23T23:32:48.036Z,11.14
2022-12-23T23:37:49.756Z,11.09
2022-12-23T23:42:51.407Z,10.96
2022-12-23T23:47:54.765Z,10.94
2022-12-23T23:52:56.373Z,11.06
2022-12-23T23:57:58.103Z,11.09
